sensor_id;sensor_type;location;lat;lon;timestamp;P1;durP1;ratioP1;P2;durP2;ratioP2
24301;SDS011;12421;49.732;20.078;2022-09-03T00:05:04;6.95;;;4.08;;
24301;SDS011;12421;49.732;20.078;2022-09-03T00:15:27;11.93;;;3.87;;
24301;SDS011;12421;49.732;20.078;2022-09-03T00:25:40;7.17;;;3.83;;
24301;SDS011;12421;49.732;20.078;2022-09-03T00:36:19;8.38;;;3.45;;
24301;SDS011;12421;49.732;20.078;2022-09-03T00:46:33;6.45;;;4.17;;
24301;SDS011;12421;49.732;20.078;2022-09-03T01:07:30;6.83;;;3.95;;
24301;SDS011;12421;49.732;20.078;2022-09-03T01:38:26;6.03;;;3.65;;
24301;SDS011;12421;49.732;20.078;2022-09-03T01:59:40;5.55;;;3.52;;
24301;SDS011;12421;49.732;20.078;2022-09-03T02:09:55;8.90;;;4.33;;
24301;SDS011;12421;49.732;20.078;2022-09-03T02:19:57;7.08;;;3.72;;
24301;SDS011;12421;49.732;20.078;2022-09-03T02:30:03;7.15;;;3.98;;
24301;SDS011;12421;49.732;20.078;2022-09-03T02:40:07;8.28;;;3.87;;
24301;SDS011;12421;49.732;20.078;2022-09-03T02:50:10;11.68;;;4.67;;
24301;SDS011;12421;49.732;20.078;2022-09-03T03:00:13;10.70;;;4.40;;
24301;SDS011;12421;49.732;20.078;2022-09-03T03:10:15;10.15;;;4.05;;
24301;SDS011;12421;49.732;20.078;2022-09-03T03:20:18;8.08;;;4.22;;
24301;SDS011;12421;49.732;20.078;2022-09-03T03:30:20;8.83;;;4.50;;
24301;SDS011;12421;49.732;20.078;2022-09-03T03:40:22;9.65;;;4.50;;
24301;SDS011;12421;49.732;20.078;2022-09-03T03:50:24;9.25;;;4.72;;
24301;SDS011;12421;49.732;20.078;2022-09-03T04:00:27;6.75;;;4.12;;
24301;SDS011;12421;49.732;20.078;2022-09-03T04:10:29;8.65;;;4.62;;
24301;SDS011;12421;49.732;20.078;2022-09-03T04:20:31;6.28;;;3.98;;
24301;SDS011;12421;49.732;20.078;2022-09-03T04:30:34;6.90;;;4.20;;
24301;SDS011;12421;49.732;20.078;2022-09-03T04:40:38;8.18;;;4.58;;
24301;SDS011;12421;49.732;20.078;2022-09-03T04:50:40;8.33;;;3.90;;
24301;SDS011;12421;49.732;20.078;2022-09-03T05:00:43;6.90;;;4.50;;
24301;SDS011;12421;49.732;20.078;2022-09-03T05:10:45;8.63;;;4.70;;
24301;SDS011;12421;49.732;20.078;2022-09-03T05:20:47;9.08;;;4.33;;
24301;SDS011;12421;49.732;20.078;2022-09-03T05:41:12;10.18;;;5.47;;
24301;SDS011;12421;49.732;20.078;2022-09-03T05:51:16;12.30;;;5.17;;
24301;SDS011;12421;49.732;20.078;2022-09-03T06:01:21;9.58;;;5.50;;
24301;SDS011;12421;49.732;20.078;2022-09-03T06:11:27;9.58;;;4.65;;
24301;SDS011;12421;49.732;20.078;2022-09-03T06:21:31;7.67;;;4.40;;
24301;SDS011;12421;49.732;20.078;2022-09-03T06:31:33;12.23;;;6.30;;
24301;SDS011;12421;49.732;20.078;2022-09-03T06:41:36;13.83;;;6.12;;
24301;SDS011;12421;49.732;20.078;2022-09-03T06:51:40;9.68;;;4.33;;
24301;SDS011;12421;49.732;20.078;2022-09-03T07:01:44;5.92;;;3.27;;
24301;SDS011;12421;49.732;20.078;2022-09-03T07:11:46;9.20;;;3.15;;
24301;SDS011;12421;49.732;20.078;2022-09-03T07:21:49;6.72;;;3.45;;
24301;SDS011;12421;49.732;20.078;2022-09-03T07:31:51;8.23;;;4.30;;
24301;SDS011;12421;49.732;20.078;2022-09-03T07:41:53;7.00;;;3.62;;
24301;SDS011;12421;49.732;20.078;2022-09-03T07:51:56;6.87;;;3.62;;
24301;SDS011;12421;49.732;20.078;2022-09-03T08:01:59;6.87;;;3.67;;
24301;SDS011;12421;49.732;20.078;2022-09-03T08:12:02;6.62;;;3.45;;
24301;SDS011;12421;49.732;20.078;2022-09-03T08:22:05;8.93;;;4.55;;
24301;SDS011;12421;49.732;20.078;2022-09-03T08:32:08;6.33;;;3.40;;
24301;SDS011;12421;49.732;20.078;2022-09-03T09:24:31;5.17;;;2.87;;
24301;SDS011;12421;49.732;20.078;2022-09-03T09:34:34;7.30;;;3.27;;
24301;SDS011;12421;49.732;20.078;2022-09-03T09:44:42;5.42;;;3.00;;
24301;SDS011;12421;49.732;20.078;2022-09-03T09:54:44;8.00;;;3.63;;
24301;SDS011;12421;49.732;20.078;2022-09-03T10:04:46;6.85;;;3.50;;
24301;SDS011;12421;49.732;20.078;2022-09-03T10:25:21;4.28;;;2.70;;
24301;SDS011;12421;49.732;20.078;2022-09-03T10:35:33;4.55;;;2.70;;
24301;SDS011;12421;49.732;20.078;2022-09-03T10:56:24;5.03;;;3.30;;
24301;SDS011;12421;49.732;20.078;2022-09-03T11:06:39;3.95;;;2.47;;
24301;SDS011;12421;49.732;20.078;2022-09-03T11:17:20;3.30;;;2.30;;
24301;SDS011;12421;49.732;20.078;2022-09-03T11:37:50;5.65;;;3.27;;
24301;SDS011;12421;49.732;20.078;2022-09-03T11:47:52;4.45;;;2.80;;
24301;SDS011;12421;49.732;20.078;2022-09-03T11:57:55;6.20;;;2.55;;
24301;SDS011;12421;49.732;20.078;2022-09-03T12:18:21;3.75;;;2.55;;
24301;SDS011;12421;49.732;20.078;2022-09-03T12:28:29;5.40;;;2.30;;
24301;SDS011;12421;49.732;20.078;2022-09-03T12:38:33;3.67;;;2.25;;
24301;SDS011;12421;49.732;20.078;2022-09-03T12:48:35;5.00;;;2.30;;
24301;SDS011;12421;49.732;20.078;2022-09-03T12:58:52;3.58;;;2.40;;
24301;SDS011;12421;49.732;20.078;2022-09-03T13:09:00;4.03;;;2.17;;
24301;SDS011;12421;49.732;20.078;2022-09-03T13:40:34;3.92;;;2.47;;
24301;SDS011;12421;49.732;20.078;2022-09-03T13:50:57;4.50;;;2.85;;
24301;SDS011;12421;49.732;20.078;2022-09-03T14:22:24;5.65;;;3.30;;
24301;SDS011;12421;49.732;20.078;2022-09-03T14:43:00;19.57;;;12.58;;
24301;SDS011;12421;49.732;20.078;2022-09-03T15:14:43;6.40;;;4.10;;
24301;SDS011;12421;49.732;20.078;2022-09-03T15:35:33;7.22;;;3.83;;
24301;SDS011;12421;49.732;20.078;2022-09-03T15:56:40;6.28;;;3.72;;
24301;SDS011;12421;49.732;20.078;2022-09-03T16:26:59;6.00;;;3.75;;
24301;SDS011;12421;49.732;20.078;2022-09-03T16:57:58;8.17;;;4.97;;
24301;SDS011;12421;49.732;20.078;2022-09-03T17:08:26;9.13;;;4.72;;
24301;SDS011;12421;49.732;20.078;2022-09-03T17:18:57;6.42;;;4.12;;
24301;SDS011;12421;49.732;20.078;2022-09-03T17:29:29;13.38;;;5.58;;
24301;SDS011;12421;49.732;20.078;2022-09-03T17:50:20;13.93;;;8.53;;
24301;SDS011;12421;49.732;20.078;2022-09-03T18:11:11;12.23;;;7.17;;
24301;SDS011;12421;49.732;20.078;2022-09-03T18:21:21;9.10;;;5.05;;
24301;SDS011;12421;49.732;20.078;2022-09-03T18:31:44;8.78;;;5.90;;
24301;SDS011;12421;49.732;20.078;2022-09-03T18:42:13;12.20;;;6.10;;
24301;SDS011;12421;49.732;20.078;2022-09-03T18:53:24;10.13;;;7.03;;
24301;SDS011;12421;49.732;20.078;2022-09-03T19:14:57;11.60;;;7.58;;
24301;SDS011;12421;49.732;20.078;2022-09-03T19:24:46;15.53;;;7.83;;
24301;SDS011;12421;49.732;20.078;2022-09-03T19:35:14;15.32;;;9.55;;
24301;SDS011;12421;49.732;20.078;2022-09-03T19:45:42;17.15;;;9.80;;
24301;SDS011;12421;49.732;20.078;2022-09-03T19:56:29;14.60;;;10.45;;
24301;SDS011;12421;49.732;20.078;2022-09-03T20:06:48;16.32;;;9.78;;
24301;SDS011;12421;49.732;20.078;2022-09-03T20:27:54;13.68;;;9.40;;
24301;SDS011;12421;49.732;20.078;2022-09-03T20:48:56;16.87;;;9.60;;
24301;SDS011;12421;49.732;20.078;2022-09-03T21:30:25;11.63;;;6.85;;
24301;SDS011;12421;49.732;20.078;2022-09-03T21:40:30;12.68;;;7.90;;
24301;SDS011;12421;49.732;20.078;2022-09-03T22:01:07;12.75;;;7.70;;
24301;SDS011;12421;49.732;20.078;2022-09-03T22:11:15;15.08;;;8.83;;
24301;SDS011;12421;49.732;20.078;2022-09-03T22:52:40;16.65;;;8.08;;
24301;SDS011;12421;49.732;20.078;2022-09-03T23:03:09;13.15;;;8.08;;
24301;SDS011;12421;49.732;20.078;2022-09-03T23:13:15;15.40;;;7.75;;
24301;SDS011;12421;49.732;20.078;2022-09-03T23:23:22;10.53;;;7.33;;
24301;SDS011;12421;49.732;20.078;2022-09-03T23:33:31;11.50;;;8.03;;
24301;SDS011;12421;49.732;20.078;2022-09-03T23:43:49;11.10;;;7.62;;
24301;SDS011;12421;49.732;20.078;2022-09-03T23:54:22;13.85;;;8.85;;
